Tiempo atmosférico en la estación meteorológica de Manilva, Málaga (140 m.)



Fecha
DESCASC
Temp. máxima en grados centígrados (hora)
DESCASC
Temp. mínima en grados centígrados (hora)
DESCASC
Temp. media en grados centígrados
DESCASC
Racha de viento máxima en m/sg (hora)
DESCASC
Velocidad máxima media en intervalos de 10 minutos(hora)
DESCASC
Precipitaciones diarias en mm
DESCASC
Precipitaciones de 00:00 a 06:00 en mm
DESCASC
Precipitaciones de 06:00 a 12:00 en mm
DESCASC
Precipitaciones de 12:00 a 18:00 en mm
DESCASC
Precipitaciones de 18:00 a 24:00 en mm
DESCASC
08-01-2021 13.4 (14:50) 9.2 (00:00) 11.3 13.06 (18:10) 7.78 (18:10) 119.6 6.2 33.8 55 24.6
20-01-2021 13.8 (21:30) 8.9 (00:00) 11.3 11.67 (22:10) 7.22 (22:20) 12.2 0 0.8 11.4 0
06-01-2021 11 (13:30) 8.4 (00:00) 9.7 15.28 (22:10) 8.61 (22:00) 39.2 4 0.2 5 30
10-01-2021 7.7 (14:20) 3.8 (05:50) 5.7 6.39 (07:10) 3.33 (03:50) 2.4 0 0 1 1.4
07-01-2021 10.7 (17:50) 8.6 (00:00) 9.7 11.11 (00:10) 5.83 (01:40) 17.4 2.2 2.2 0.8 12.2
28-12-2020 15.5 (12:10) 7.7 (00:00) 11.6 15.56 (11:00) 10 (12:20) 0.6 0 0 0.4 0.2
15-01-2021 17.4 (15:40) 7.1 (00:00) 12.2 12.78 (02:20) 9.44 (10:20) 0 0 0 0 0
11-01-2021 13.7 (16:10) 4.2 (00:00) 8.9 7.78 (19:30) 5.56 (19:30) 1.6 0.4 1.2 0 0
12-01-2021 14.8 (17:10) 5.4 (00:00) 10.1 6.67 (05:50) 5 (08:10) 0 0 0 0 0
13-01-2021 16.2 (15:20) 6.2 (00:00) 11.2 10.83 (23:30) 7.78 (23:50) 0 0 0 0 0
14-01-2021 15.2 (16:00) 6.8 (08:50) 11 15.28 (13:40) 10.28 (13:50) 0 0 0 0 0
21-01-2021 16.7 (16:20) 11.6 (00:00) 14.2 11.67 (14:30) 7.22 (13:00) 0 0 0 0 0
16-01-2021 19.6 (14:10) 9.2 (00:00) 14.4 9.44 (01:20) 6.67 (00:40) 0 0 0 0 0
17-01-2021 16.4 (16:00) 9.3 (00:00) 12.8 6.11 (23:10) 4.72 (23:10) 0 0 0 0 0
18-01-2021 15.4 (15:20) 8.4 (00:00) 11.9 8.61 (04:50) 6.11 (04:40) 0 0 0 0 0
19-01-2021 15.6 (15:30) 9.3 (00:00) 12.5 5 (11:40) 2.78 (11:40) 0 0 0 0 0
23-12-2020 19.7 (16:40) 10.4 (00:00) 15.1 7.22 (14:00) 4.17 (15:20) 0 0 0 0 0
09-01-2021 11.6 (14:10) 5.2 (00:00) 8.4 12.22 (13:10) 7.5 (13:10) 3 0 0 0 3
05-01-2021 13 (14:40) 7.2 (00:00) 10.1 6.11 (02:20) 4.72 (02:50) 2.4 0 0 0 2.4
04-01-2021 14.5 (15:30) 4.3 (00:00) 9.4 10.83 (14:20) 7.5 (04:10) 0 0 0 0 0
03-01-2021 14.2 (15:30) 4.2 (00:00) 9.2 10.28 (14:20) 6.39 (14:20) 0 0 0 0 0
02-01-2021 13.8 (15:10) 4.3 (00:00) 9.1 11.94 (15:00) 7.22 (16:00) 0 0 0 0 0
01-01-2021 13.5 (16:10) 7.4 (00:00) 10.5 13.06 (10:20) 8.33 (11:50) 0.8 0.8 0 0 0
31-12-2020 15.6 (14:20) 6.1 (00:00) 10.9 10 (14:40) 6.11 (14:30) 0.4 0 0 0 0.4
30-12-2020 16.9 (16:00) 5.9 (00:00) 11.4 8.06 (08:00) 6.11 (08:00) 0 0 0 0 0
29-12-2020 14.9 (14:50) 7 (00:00) 10.9 11.67 (03:00) 6.67 (03:20) 0 0 0 0 0
27-12-2020 17 (15:50) 7.6 (00:00) 12.3 11.39 (20:40) 7.5 (22:20) 0 0 0 0 0
26-12-2020 14.6 (15:50) 10.6 (00:00) 12.6 11.39 (05:40) 7.22 (04:00) 0 0 0 0 0
25-12-2020 17 (14:20) 11.3 (00:00) 14.2 6.39 (23:59) 4.17 (15:10) 0 0 0 0 0
24-12-2020 20.2 (15:00) 11.9 (00:00) 16.1 7.5 (08:50) 5.83 (08:50) 0 0 0 0 0

Gráficas

Temp. máximas Temp. mínimas Temp. medias Precipitaciones Rachas de viento máximas Velocidades máximas media en intervalos de 10 minutos

Datos horarios

Fecha y hora oficial Temperatura (ºC) Velocidad del viento (km/h) Dirección del viento Racha (km/h) Dirección de racha Precipitación (mm) Presión (hPa) Tendencia (hPa) Humedad (%)
2021-01-21 23:00:00 13.9 5 Noroeste 24 Noroeste 0 -- -- 87
2021-01-21 22:00:00 14.2 15 Noroeste 24 Oeste 0 -- -- 87
2021-01-21 21:00:00 14.3 16 Oeste 26 Oeste 0 -- -- 87
2021-01-21 20:00:00 14.8 12 Oeste 23 Oeste 0 -- -- 83
2021-01-21 19:00:00 14.9 12 Noroeste 25 Oeste 0 -- -- 83
2021-01-21 18:00:00 15.7 20 Oeste 35 Noroeste 0 -- -- 76
2021-01-21 17:00:00 16.1 18 Noroeste 40 Noroeste 0 -- -- 73
2021-01-21 16:00:00 16.1 13 Noroeste 34 Oeste 0 -- -- 75
2021-01-21 15:00:00 16.3 21 Oeste 42 Oeste 0 -- -- 74
2021-01-21 14:00:00 16 18 Oeste 36 Oeste 0 -- -- 75
2021-01-21 13:00:00 15.3 26 Noroeste 40 Noroeste 0 -- -- 79
2021-01-21 12:00:00 15.6 14 Noroeste 30 Oeste 0 -- -- 83
2021-01-21 11:00:00 14.6 9 Noroeste 26 Oeste 0 -- -- 87
2021-01-21 10:00:00 13.5 12 Noroeste 22 Oeste 0 -- -- 91
2021-01-21 09:00:00 11.9 8 Noroeste 17 Noroeste 0 -- -- 92
2021-01-21 08:00:00 11.9 7 Noroeste 18 Noroeste 0 -- -- 92
2021-01-21 07:00:00 11.9 10 Noroeste 22 Noroeste 0 -- -- 92
2021-01-21 06:00:00 11.8 9 Noroeste 16 Noroeste 0 -- -- 91
2021-01-21 05:00:00 12.1 7 Noroeste 16 Noroeste 0 -- -- 90
2021-01-21 04:00:00 11.8 6 Noroeste 18 Norte 0 -- -- 91
2021-01-21 03:00:00 12.2 10 Noroeste 18 Noroeste 0 -- -- 90
2021-01-21 02:00:00 12.3 10 Noroeste 19 Noroeste 0 -- -- 88
2021-01-21 01:00:00 12.9 6 Oeste 21 Oeste 0 -- -- 87
2021-01-21 00:00:00 12.8 10 Noroeste 21 Norte 0 -- -- 87
2021-01-20 23:00:00 13.3 13 Noroeste 42 Oeste 0 -- -- 85
2021-01-20 22:00:00 13.7 21 Noroeste 34 Oeste 0 -- -- 87
2021-01-20 21:00:00 13.7 20 Noroeste 35 Noroeste 0 -- -- 89
2021-01-20 20:00:00 12.8 17 Noroeste 26 Oeste 0 -- -- 94
2021-01-20 19:00:00 12.6 10 Noroeste 24 Noroeste 0 -- -- 95
2021-01-20 18:00:00 12.9 11 Oeste 25 Oeste 0.8 -- -- 95
2021-01-20 17:00:00 12.9 13 Oeste 29 Sudoeste 5 -- -- 95
2021-01-20 16:00:00 12.7 15 Oeste 31 Oeste 0.6 -- -- 95
2021-01-20 15:00:00 12.3 11 Sudoeste 21 Sudoeste 1.2 -- -- 94
2021-01-20 14:00:00 12.3 12 Sudoeste 20 Oeste 2 -- -- 93
2021-01-20 13:00:00 12.1 8 Sudoeste 19 Sudoeste 1.8 -- -- 91
2021-01-20 12:00:00 12.1 6 Oeste 12 Oeste 0.4 -- -- 87
2021-01-20 11:00:00 11.9 0 Calma 6 Oeste 0.4 -- -- 85
2021-01-20 10:00:00 12 3 Noroeste 15 Oeste 0 -- -- 79
2021-01-20 09:00:00 12.1 9 Oeste 15 Oeste 0 -- -- 77
2021-01-20 08:00:00 12 9 Oeste 19 Sudoeste 0 -- -- 77
2021-01-20 07:00:00 11.1 6 Sudoeste 13 Oeste 0 -- -- 85
2021-01-20 06:00:00 10.4 3 Nordeste 5 Nordeste 0 -- -- 91
2021-01-20 05:00:00 10.1 0 Calma 7 Nordeste 0 -- -- 92
2021-01-20 04:00:00 9.6 4 Norte 5 Norte 0 -- -- 92
2021-01-20 03:00:00 9.5 3 Norte 6 Norte 0 -- -- 93
2021-01-20 02:00:00 9.1 3 Norte 6 Norte 0 -- -- 93
2021-01-20 01:00:00 8.9 3 Norte 12 Noroeste 0 -- -- 91
2021-01-20 00:00:00 9.3 4 Norte 6 Noroeste 0 -- -- 90
2021-01-19 23:00:00 10.3 2 Norte 5 Norte 0 -- -- 90
2021-01-19 22:00:00 10.4 3 Nordeste 4 Nordeste 0 -- -- 90
2021-01-19 21:00:00 10.3 2 Nordeste 5 Noroeste 0 -- -- 88
2021-01-19 20:00:00 10.6 4 Norte 5 Norte 0 -- -- 85
2021-01-19 19:00:00 12.1 2 Noroeste 6 Sur 0 -- -- 80
2021-01-19 18:00:00 14 3 Sudoeste 11 Sur 0 -- -- 75
2021-01-19 17:00:00 15.4 6 Sur 15 Sur 0 -- -- 70
2021-01-19 16:00:00 15.6 8 Sur 15 Sur 0 -- -- 68
2021-01-19 15:00:00 15.4 7 Sur 15 Sur 0 -- -- 68
2021-01-19 14:00:00 14.3 7 Sudeste 16 Sur 0 -- -- 71
2021-01-19 13:00:00 13.8 8 Sudeste 15 Este 0 -- -- 71
2021-01-19 12:00:00 13.2 8 Sudeste 18 Sudeste 0 -- -- 74
2021-01-19 11:00:00 12.4 4 Este 8 Este 0 -- -- 81
2021-01-19 10:00:00 10.6 3 Nordeste 8 Este 0 -- -- 86
2021-01-19 09:00:00 9.8 3 Nordeste 9 Este 0 -- -- 88
2021-01-19 08:00:00 9.8 3 Nordeste 8 Este 0 -- -- 89
2021-01-19 07:00:00 9.7 3 Nordeste 9 Este 0 -- -- 88
2021-01-19 06:00:00 10 2 Nordeste 9 Este 0 -- -- 90
2021-01-19 05:00:00 10 4 Este 9 Nordeste 0 -- -- 92
2021-01-19 04:00:00 10.1 4 Nordeste 8 Sudeste 0 -- -- 92
2021-01-19 03:00:00 9.8 3 Nordeste 7 Nordeste 0 -- -- 92
2021-01-19 02:00:00 10 3 Nordeste 6 Este 0 -- -- 92
2021-01-19 01:00:00 10 4 Nordeste 8 Nordeste 0 -- -- 92
2021-01-19 00:00:00 10 5 Nordeste 6 Nordeste 0 -- -- 91
2021-01-18 23:00:00 9.8 3 Norte 7 Norte 0 -- -- 89
2021-01-18 22:00:00 10.3 4 Nordeste 5 Nordeste 0 -- -- 87
2021-01-18 21:00:00 11 3 Nordeste 6 Este 0 -- -- 85
2021-01-18 20:00:00 11.4 0 Calma 5 Sudeste 0 -- -- 83
2021-01-18 19:00:00 12.2 0 Calma 13 Sudeste 0 -- -- 80
2021-01-18 18:00:00 13.6 5 Sudeste 19 Sudeste 0 -- -- 75
2021-01-18 17:00:00 15 9 Sudeste 14 Sudeste 0 -- -- 72
2021-01-18 16:00:00 15.3 8 Sudeste 13 Sudeste 0 -- -- 71
2021-01-18 15:00:00 15.1 7 Sudeste 14 Sudeste 0 -- -- 73
2021-01-18 14:00:00 14.9 9 Sudeste 13 Este 0 -- -- 73
2021-01-18 13:00:00 14.5 8 Sudeste 12 Sudeste 0 -- -- 68
2021-01-18 12:00:00 14.1 6 Sudeste 10 Sudeste 0 -- -- 63
2021-01-18 11:00:00 12.7 4 Este 5 Este 0 -- -- 60
2021-01-18 10:00:00 11.8 4 Nordeste 13 Noroeste 0 -- -- 55
2021-01-18 09:00:00 9 11 Noroeste 16 Noroeste 0 -- -- 58
2021-01-18 08:00:00 8.8 7 Norte 15 Noroeste 0 -- -- 64
2021-01-18 07:00:00 9.1 5 Norte 12 Noroeste 0 -- -- 62
2021-01-18 06:00:00 10 8 Nordeste 26 Norte 0 -- -- 63
2021-01-18 05:00:00 10.5 17 Norte 31 Norte 0 -- -- 71
2021-01-18 04:00:00 10.4 14 Norte 27 Norte 0 -- -- 69
2021-01-18 03:00:00 10.3 15 Norte 27 Noroeste 0 -- -- 61
2021-01-18 02:00:00 9.3 13 Noroeste 21 Noroeste 0 -- -- 71
2021-01-18 01:00:00 10.3 2 Nordeste 14 Norte 0 -- -- 75
2021-01-18 00:00:00 12.5 12 Norte 22 Norte 0 -- -- 70
2021-01-17 23:00:00 11.3 14 Norte 22 Norte 0 -- -- 75
2021-01-17 22:00:00 10.5 5 Norte 15 Noroeste 0 -- -- 82
2021-01-17 21:00:00 10.6 12 Noroeste 15 Noroeste 0 -- -- 85
2021-01-17 20:00:00 10.7 5 Oeste 11 Oeste 0 -- -- 78
2021-01-17 19:00:00 11.7 3 Noroeste 5 Sudoeste 0 -- -- 74
2021-01-17 18:00:00 14.3 4 Sudoeste 9 Sudoeste 0 -- -- 65
2021-01-17 17:00:00 15.8 5 Sudoeste 10 Sudeste 0 -- -- 59
2021-01-17 16:00:00 16.4 4 Sudoeste 13 Sudeste 0 -- -- 57
2021-01-17 15:00:00 16.1 5 Sudoeste 15 Sur 0 -- -- 60
2021-01-17 14:00:00 14.6 6 Sudeste 12 Sudeste 0 -- -- 66
2021-01-17 13:00:00 13.8 8 Sudeste 17 Sur 0 -- -- 70
2021-01-17 12:00:00 13.5 9 Sudeste 17 Sudeste 0 -- -- 77
2021-01-17 11:00:00 12.6 9 Sudeste 16 Sudeste 0 -- -- 76
2021-01-17 10:00:00 11.6 7 Sudeste 14 Sudeste 0 -- -- 77
2021-01-17 09:00:00 9.5 3 Este 8 Nordeste 0 -- -- 80
2021-01-17 08:00:00 9.6 2 Sudeste 8 Este 0 -- -- 81
2021-01-17 07:00:00 9.7 0 Calma 6 Nordeste 0 -- -- 77
2021-01-17 06:00:00 10.3 3 Este 11 Este 0 -- -- 74
2021-01-17 05:00:00 10.1 3 Sudeste 10 Sudeste 0 -- -- 69
2021-01-17 04:00:00 10.7 5 Sudeste 13 Sudeste 0 -- -- 66
2021-01-17 03:00:00 11 0 Calma 18 Sudeste 0 -- -- 70
2021-01-17 02:00:00 11 7 Sudeste 14 Sudeste 0 -- -- 68
2021-01-17 01:00:00 10.7 3 Este 10 Nordeste 0 -- -- 73
2021-01-17 00:00:00 10.8 2 Este 14 Este 0 -- -- 77
2021-01-16 23:00:00 11 2 Este 15 Este 0 -- -- 79
2021-01-16 22:00:00 11.3 5 Sudeste 13 Sudeste 0 -- -- 81
2021-01-16 21:00:00 11.8 4 Este 18 Nordeste 0 -- -- 81
2021-01-16 20:00:00 12.9 10 Sudeste 21 Sudeste 0 -- -- 83
2021-01-16 19:00:00 12.6 7 Este 23 Este 0 -- -- 77
2021-01-16 18:00:00 14.2 10 Sudeste 24 Este 0 -- -- 64
2021-01-16 17:00:00 16.1 9 Sudeste 18 Sudeste 0 -- -- 46
2021-01-16 16:00:00 17.6 9 Sudeste 14 Este 0 -- -- 53
2021-01-16 15:00:00 18.4 9 Este 16 Sur 0 -- -- 53
2021-01-16 14:00:00 19.5 7 Noroeste 14 Noroeste 0 -- -- 40
2021-01-16 13:00:00 18 5 Nordeste 10 Nordeste 0 -- -- 41
2021-01-16 12:00:00 16.3 0 Calma 18 Noroeste 0 -- -- 36
2021-01-16 11:00:00 14.3 4 Noroeste 14 Este 0 -- -- 38
2021-01-16 10:00:00 11.9 6 Norte 14 Noroeste 0 -- -- 42
2021-01-16 09:00:00 10.3 9 Norte 25 Noroeste 0 -- -- 44
2021-01-16 08:00:00 9.3 14 Noroeste 21 Noroeste 0 -- -- 50
2021-01-16 07:00:00 9.8 17 Noroeste 33 Noroeste 0 -- -- 52
2021-01-16 06:00:00 9.7 22 Noroeste 34 Noroeste 0 -- -- 58
2021-01-16 05:00:00 9.7 20 Noroeste 28 Noroeste 0 -- -- 62
2021-01-16 04:00:00 10 18 Norte 28 Noroeste 0 -- -- 59
2021-01-16 03:00:00 9.9 20 Norte 31 Noroeste 0 -- -- 62
2021-01-16 02:00:00 9.6 20 Norte 34 Noroeste 0 -- -- 64
2021-01-16 01:00:00 9.7 24 Norte 33 Noroeste 0 -- -- 64
2021-01-16 00:00:00 9.2 22 Norte 33 Noroeste 0 -- -- 68
2021-01-15 23:00:00 10 21 Norte 33 Noroeste 0 -- -- 65
2021-01-15 22:00:00 10.8 19 Noroeste 34 Norte 0 -- -- 58
2021-01-15 21:00:00 10.9 20 Noroeste 34 Noroeste 0 -- -- 62
2021-01-15 20:00:00 11.6 24 Noroeste 42 Noroeste 0 -- -- 63
2021-01-15 19:00:00 11.9 22 Noroeste 44 Noroeste 0 -- -- 66
2021-01-15 18:00:00 14.1 21 Noroeste 39 Noroeste 0 -- -- 59
2021-01-15 17:00:00 16.5 23 Noroeste 41 Noroeste 0 -- -- 52
2021-01-15 16:00:00 17 29 Noroeste 42 Noroeste 0 -- -- 47
2021-01-15 15:00:00 16.8 24 Noroeste 39 Oeste 0 -- -- 50
2021-01-15 14:00:00 16.2 25 Noroeste 37 Oeste 0 -- -- 50
2021-01-15 13:00:00 14.4 20 Noroeste 38 Noroeste 0 -- -- 52
2021-01-15 12:00:00 11.7 24 Noroeste 44 Noroeste 0 -- -- 63
2021-01-15 11:00:00 9.4 31 Noroeste 45 Noroeste 0 -- -- 68
2021-01-15 10:00:00 8 31 Noroeste 42 Noroeste 0 -- -- 72
2021-01-15 09:00:00 7.1 26 Noroeste 39 Noroeste 0 -- -- 74
2021-01-15 08:00:00 7.5 25 Noroeste 36 Norte 0 -- -- 72
2021-01-15 07:00:00 7.6 20 Norte 39 Oeste 0 -- -- 71
2021-01-15 06:00:00 7.7 26 Noroeste 38 Noroeste 0 -- -- 72
2021-01-15 05:00:00 7.8 23 Noroeste 35 Noroeste 0 -- -- 72
2021-01-15 04:00:00 7.9 24 Noroeste 38 Noroeste 0 -- -- 72
2021-01-15 03:00:00 7.9 23 Noroeste 46 Noroeste 0 -- -- 72
2021-01-15 02:00:00 7.7 27 Noroeste 44 Noroeste 0 -- -- 74
2021-01-15 01:00:00 7.7 28 Noroeste 42 Noroeste 0 -- -- 78
2021-01-15 00:00:00 7.8 29 Noroeste 44 Noroeste 0 -- -- 80
2021-01-14 23:00:00 7.7 30 Noroeste 46 Noroeste 0 -- -- 79
2021-01-14 22:00:00 7.7 26 Noroeste 37 Oeste 0 -- -- 77
2021-01-14 21:00:00 8.5 21 Noroeste 40 Noroeste 0 -- -- 73
2021-01-14 20:00:00 9.7 23 Noroeste 38 Noroeste 0 -- -- 72
2021-01-14 19:00:00 10.7 23 Noroeste 44 Noroeste 0 -- -- 73
2021-01-14 18:00:00 11.9 24 Noroeste 45 Noroeste 0 -- -- 68
2021-01-14 17:00:00 13.7 27 Noroeste 45 Noroeste 0 -- -- 61
2021-01-14 16:00:00 15.2 21 Noroeste 51 Oeste 0 -- -- 50
2021-01-14 15:00:00 14.4 32 Noroeste 54 Noroeste 0 -- -- 50
2021-01-14 14:00:00 14 35 Noroeste 55 Oeste 0 -- -- 52
2021-01-14 13:00:00 13.5 32 Noroeste 49 Oeste 0 -- -- 48
2021-01-14 12:00:00 12.5 29 Noroeste 46 Noroeste 0 -- -- 57
2021-01-14 11:00:00 10.4 23 Noroeste 35 Oeste 0 -- -- 59
2021-01-14 10:00:00 8.4 27 Noroeste 35 Noroeste 0 -- -- 56
2021-01-14 09:00:00 7 22 Noroeste 37 Oeste 0 -- -- 59
2021-01-14 08:00:00 8.3 15 Noroeste 41 Noroeste 0 -- -- 54
2021-01-14 07:00:00 9 30 Noroeste 41 Noroeste 0 -- -- 51
2021-01-14 06:00:00 8.4 24 Noroeste 39 Noroeste 0 -- -- 52
2021-01-14 05:00:00 8.6 27 Noroeste 43 Noroeste 0 -- -- 54
2021-01-14 04:00:00 8.6 22 Noroeste 42 Noroeste 0 -- -- 56
2021-01-14 03:00:00 8 25 Noroeste 40 Noroeste 0 -- -- 57
2021-01-14 02:00:00 7.8 25 Noroeste 38 Norte 0 -- -- 62
2021-01-14 01:00:00 7.5 22 Noroeste 41 Noroeste 0 -- -- 65
2021-01-14 00:00:00 7.8 26 Noroeste 39 Noroeste 0 -- -- 66
2021-01-13 23:00:00 8.3 24 Noroeste 36 Noroeste 0 -- -- 68
2021-01-13 22:00:00 9 18 Noroeste 25 Norte 0 -- -- 69
2021-01-13 21:00:00 9.7 14 Noroeste 27 Noroeste 0 -- -- 68
2021-01-13 20:00:00 10.3 19 Noroeste 32 Noroeste 0 -- -- 66
2021-01-13 19:00:00 11.5 22 Noroeste 32 Noroeste 0 -- -- 61
2021-01-13 18:00:00 13.2 19 Noroeste 31 Oeste 0 -- -- 57
2021-01-13 17:00:00 15.3 23 Oeste 35 Oeste 0 -- -- 49
2021-01-13 16:00:00 15.8 23 Oeste 33 Oeste 0 -- -- 42
2021-01-13 15:00:00 16.1 17 Oeste 28 Sudoeste 0 -- -- 44
2021-01-13 14:00:00 15 17 Noroeste 28 Oeste 0 -- -- 51
2021-01-13 13:00:00 13.2 21 Noroeste 28 Noroeste 0 -- -- 55
2021-01-13 12:00:00 11.5 15 Noroeste 24 Oeste 0 -- -- 57
2021-01-13 11:00:00 9.8 12 Noroeste 21 Noroeste 0 -- -- 53
2021-01-13 10:00:00 8.7 15 Noroeste 26 Noroeste 0 -- -- 56
2021-01-13 09:00:00 7.3 10 Noroeste 17 Noroeste 0 -- -- 63
2021-01-13 08:00:00 6.6 9 Noroeste 15 Noroeste 0 -- -- 68
2021-01-13 07:00:00 6.6 10 Noroeste 17 Noroeste 0 -- -- 73
2021-01-13 06:00:00 6.4 8 Noroeste 11 Noroeste 0 -- -- 80
2021-01-13 05:00:00 6.5 5 Norte 10 Noroeste 0 -- -- 80
2021-01-13 04:00:00 6.7 2 Noroeste 7 Noroeste 0 -- -- 80
2021-01-13 03:00:00 7.1 4 Norte 7 Noroeste 0 -- -- 80
2021-01-13 02:00:00 7.3 3 Noroeste 5 Noroeste 0 -- -- 78
2021-01-13 01:00:00 7.4 4 Noroeste 10 Noroeste 0 -- -- 76
2021-01-13 00:00:00 7.5 4 Norte 12 Noroeste 0 -- -- 77
2021-01-12 23:00:00 7.6 9 Noroeste 13 Noroeste 0 -- -- 78
2021-01-12 22:00:00 7.5 9 Noroeste 12 Noroeste 0 -- -- 78
2021-01-12 21:00:00 7.8 5 Norte 9 Noroeste 0 -- -- 75
2021-01-12 20:00:00 8.5 3 Norte 7 Norte 0 -- -- 69
2021-01-12 19:00:00 10.1 3 Norte 5 Norte 0 -- -- 65
2021-01-12 18:00:00 13 2 Sur 9 Sur 0 -- -- 57
2021-01-12 17:00:00 14.7 4 Sur 13 Sudeste 0 -- -- 50
2021-01-12 16:00:00 14.4 8 Sur 15 Sur 0 -- -- 54
2021-01-12 15:00:00 14.3 5 Sur 14 Sur 0 -- -- 54
2021-01-12 14:00:00 13.1 6 Sur 13 Sudeste 0 -- -- 53
2021-01-12 13:00:00 12.2 4 Sudeste 11 Sudeste 0 -- -- 58
2021-01-12 12:00:00 11.2 3 Este 8 Este 0 -- -- 61
2021-01-12 11:00:00 10 3 Este 12 Noroeste 0 -- -- 62
2021-01-12 10:00:00 7.5 8 Noroeste 15 Noroeste 0 -- -- 71
2021-01-12 09:00:00 5.9 8 Noroeste 23 Noroeste 0 -- -- 71
2021-01-12 08:00:00 5.4 15 Noroeste 24 Noroeste 0 -- -- 75
2021-01-12 07:00:00 5.9 14 Noroeste 22 Noroeste 0 -- -- 75
2021-01-12 06:00:00 5.8 18 Noroeste 24 Noroeste 0 -- -- 77
2021-01-12 05:00:00 6.7 11 Noroeste 18 Noroeste 0 -- -- 75
2021-01-12 04:00:00 5.9 13 Noroeste 20 Noroeste 0 -- -- 81
2021-01-12 03:00:00 6.3 10 Noroeste 15 Noroeste 0 -- -- 80
2021-01-12 02:00:00 7 12 Noroeste 18 Noroeste 0 -- -- 80
2021-01-12 01:00:00 6.7 10 Noroeste 21 Noroeste 0 -- -- 83
2021-01-12 00:00:00 6.9 12 Noroeste 19 Norte 0 -- -- 84
2021-01-11 23:00:00 6.9 13 Noroeste 19 Noroeste 0 -- -- 86
2021-01-11 22:00:00 7.2 9 Noroeste 17 Noroeste 0 -- -- 84
2021-01-11 21:00:00 7.7 11 Noroeste 20 Noroeste 0 -- -- 82
2021-01-11 20:00:00 8.4 7 Norte 28 Oeste 0 -- -- 79
2021-01-11 19:00:00 9.4 19 Oeste 26 Noroeste 0 -- -- 76
2021-01-11 18:00:00 10.6 18 Noroeste 27 Oeste 0 -- -- 71
2021-01-11 17:00:00 12.6 14 Oeste 24 Oeste 0 -- -- 63
2021-01-11 16:00:00 13.6 9 Oeste 21 Oeste 0 -- -- 57
2021-01-11 15:00:00 13.2 10 Sudoeste 19 Sudoeste 0 -- -- 58
2021-01-11 14:00:00 12 8 Oeste 14 Oeste 0 -- -- 63
2021-01-11 13:00:00 10.5 8 Noroeste 15 Norte 0 -- -- 70
2021-01-11 12:00:00 8.1 8 Noroeste 19 Noroeste 0 -- -- 82
2021-01-11 11:00:00 6.9 12 Noroeste 22 Noroeste 0 -- -- 86
2021-01-11 10:00:00 6.5 15 Noroeste 22 Noroeste 0 -- -- 87
2021-01-11 09:00:00 5.7 13 Noroeste 21 Noroeste 0 -- -- 90
2021-01-11 08:00:00 5.2 12 Noroeste 18 Noroeste 0 -- -- 91
2021-01-11 07:00:00 5.7 8 Noroeste 14 Noroeste 1.2 -- -- 90
2021-01-11 06:00:00 6.1 2 Norte 9 Este 0.4 -- -- 91
2021-01-11 05:00:00 5.8 0 Calma 5 Noroeste 0 -- -- 91
2021-01-11 04:00:00 5.3 3 Norte 10 Noroeste 0 -- -- 92
2021-01-11 03:00:00 4.8 5 Noroeste 12 Noroeste 0 -- -- 92
2021-01-11 02:00:00 4.8 4 Noroeste 12 Noroeste 0 -- -- 93
2021-01-11 01:00:00 4.2 3 Noroeste 13 Noroeste 0 -- -- 93
2021-01-11 00:00:00 4.4 10 Noroeste 14 Noroeste 0 -- -- 93
2021-01-10 23:00:00 4.5 9 Noroeste 12 Noroeste 0 -- -- 92
2021-01-10 22:00:00 5.2 3 Norte 8 Norte 0 -- -- 92
2021-01-10 21:00:00 5.3 3 Nordeste 6 Norte 0.2 -- -- 92
2021-01-10 20:00:00 5.4 5 Norte 9 Nordeste 1.2 -- -- 90
2021-01-10 19:00:00 5.8 2 Nordeste 9 Este 0 -- -- 90
2021-01-10 18:00:00 6.2 4 Sudeste 6 Sudeste 0.4 -- -- 87
2021-01-10 17:00:00 6.4 0 Calma 8 Oeste 0.4 -- -- 87
2021-01-10 16:00:00 6.6 3 Oeste 14 Oeste 0.2 -- -- 86
2021-01-10 15:00:00 7.1 10 Oeste 15 Oeste 0 -- -- 85
2021-01-10 14:00:00 7.6 4 Noroeste 12 Noroeste 0 -- -- 78
2021-01-10 13:00:00 7.3 8 Noroeste 15 Noroeste 0 -- -- 81
2021-01-10 12:00:00 6.8 7 Noroeste 14 Noroeste 0 -- -- 84
2021-01-10 11:00:00 5.6 10 Noroeste 17 Noroeste 0 -- -- 90
2021-01-10 10:00:00 5.5 0 Calma 5 Noroeste 0 -- -- 91
2021-01-10 09:00:00 4.7 3 Norte 11 Noroeste 0 -- -- 90
2021-01-10 08:00:00 4.6 3 Sudoeste 23 Sudoeste 0 -- -- 91
2021-01-10 07:00:00 4.4 4 Oeste 10 Noroeste 0 -- -- 91
2021-01-10 06:00:00 3.9 8 Noroeste 10 Noroeste 0 -- -- 92
2021-01-10 05:00:00 4.7 6 Noroeste 13 Noroeste 0 -- -- 92
2021-01-10 04:00:00 4.3 11 Noroeste 17 Noroeste 0 -- -- 92
2021-01-10 03:00:00 4.9 10 Oeste 13 Oeste 0 -- -- 94
2021-01-10 02:00:00 5 10 Noroeste 13 Noroeste 0 -- -- 93
2021-01-10 01:00:00 5.2 8 Noroeste 12 Noroeste 0 -- -- 93
2021-01-10 00:00:00 5.8 10 Oeste 15 Oeste 0 -- -- 94
2021-01-09 23:00:00 5.5 3 Norte 8 Noroeste 0 -- -- 93
2021-01-09 22:00:00 6.5 5 Noroeste 15 Noroeste 0.4 -- -- 93
2021-01-09 21:00:00 6.9 0 Calma 4 Sudoeste 0.2 -- -- 92
2021-01-09 20:00:00 7.2 4 Norte 11 Oeste 1 -- -- 90
2021-01-09 19:00:00 7.5 3 Noroeste 15 Oeste 1.4 -- -- 87
2021-01-09 18:00:00 8.4 12 Oeste 24 Sudoeste 0 -- -- 76
2021-01-09 17:00:00 9.4 9 Sudoeste 27 Oeste 0 -- -- 70
2021-01-09 16:00:00 11.1 18 Noroeste 30 Oeste 0 -- -- 58
2021-01-09 15:00:00 11.5 18 Noroeste 42 Noroeste 0 -- -- 51
2021-01-09 14:00:00 11.3 23 Noroeste 44 Oeste 0 -- -- 53
2021-01-09 13:00:00 11 26 Oeste 42 Oeste 0 -- -- 56
2021-01-09 12:00:00 9.8 17 Noroeste 32 Oeste 0 -- -- 73
2021-01-09 11:00:00 8.2 14 Noroeste 35 Noroeste 0 -- -- 76
2021-01-09 10:00:00 6.9 17 Norte 35 Norte 0 -- -- 78
2021-01-09 09:00:00 6.3 15 Noroeste 37 Oeste 0 -- -- 82
2021-01-09 08:00:00 6.6 13 Noroeste 39 Noroeste 0 -- -- 86
2021-01-09 07:00:00 7.4 15 Noroeste 29 Oeste 0 -- -- 92
2021-01-09 06:00:00 7.6 17 Noroeste 31 Oeste 0 -- -- 93
2021-01-09 05:00:00 7.9 19 Noroeste 41 Noroeste 0 -- -- 94
2021-01-09 04:00:00 8.5 15 Noroeste 29 Noroeste 0 -- -- 96
2021-01-09 03:00:00 9 14 Noroeste 24 Norte 0 -- -- 97
2021-01-09 02:00:00 9.2 12 Noroeste 22 Oeste 0 -- -- 98
2021-01-09 01:00:00 9.1 10 Noroeste 30 Oeste 0 -- -- 98
2021-01-09 00:00:00 9.2 21 Oeste 42 Oeste 0 -- -- 98
2021-01-08 23:00:00 10 23 Noroeste 41 Oeste 0 -- -- 98
2021-01-08 22:00:00 12.5 12 Oeste 18 Oeste 6.4 -- -- 99
2021-01-08 21:00:00 13.2 12 Oeste 41 Sudeste 9.8 -- -- 98
2021-01-08 20:00:00 12.8 22 Sudeste 40 Sudeste 5.8 -- -- 99
2021-01-08 19:00:00 13.1 19 Sudeste 47 Sudeste 2.6 -- -- 98
2021-01-08 18:00:00 13.4 17 Sudeste 40 Sudeste 2.2 -- -- 98
2021-01-08 17:00:00 12.8 11 Sudeste 29 Sudeste 3.6 -- -- 99
2021-01-08 16:00:00 12.6 12 Sudeste 40 Sudeste 5.8 -- -- 98
2021-01-08 15:00:00 13.4 16 Sudeste 37 Sudeste 5.8 -- -- 98
2021-01-08 14:00:00 11.5 9 Este 31 Nordeste 8.2 -- -- 98
2021-01-08 13:00:00 10.7 16 Este 38 Este 29.4 -- -- 98
2021-01-08 12:00:00 10.7 14 Este 42 Sudeste 15.8 -- -- 98
2021-01-08 11:00:00 10.9 14 Este 34 Este 5.4 -- -- 98
2021-01-08 10:00:00 10.9 13 Este 33 Este 2.4 -- -- 97
2021-01-08 09:00:00 10.5 12 Este 39 Sudeste 2.6 -- -- 97
2021-01-08 08:00:00 10.9 15 Este 36 Sudeste 6 -- -- 97
2021-01-08 07:00:00 10.6 9 Este 24 Sudeste 1.6 -- -- 97
2021-01-08 06:00:00 10.4 12 Sudeste 24 Sudeste 2.2 -- -- 97
2021-01-08 05:00:00 10.3 9 Este 22 Sudeste 2 -- -- 97
2021-01-08 04:00:00 10.3 10 Sudeste 24 Sudeste 0.4 -- -- 97
2021-01-08 03:00:00 10.4 16 Sudeste 26 Este 0.4 -- -- 97
2021-01-08 02:00:00 10.4 13 Sudeste 24 Este 0.4 -- -- 96
2021-01-08 01:00:00 10.4 9 Este 28 Este 0.8 -- -- 96
2021-01-08 00:00:00 10.4 11 Este 26 Nordeste 2 -- -- 96
2021-01-07 23:00:00 10.4 9 Sudeste 21 Sudeste 3.4 -- -- 96
2021-01-07 22:00:00 10.3 8 Este 23 Este 3.4 -- -- 96
2021-01-07 21:00:00 10.4 7 Este 23 Nordeste 2 -- -- 96
2021-01-07 20:00:00 10.4 6 Este 23 Este 0.4 -- -- 96
2021-01-07 19:00:00 10.6 6 Este 14 Este 1 -- -- 95
2021-01-07 18:00:00 10.7 5 Este 15 Este 0.4 -- -- 95
2021-01-07 17:00:00 10.5 6 Sudeste 18 Sudeste 0 -- -- 95
2021-01-07 16:00:00 10.5 9 Este 24 Este 0.2 -- -- 96
2021-01-07 15:00:00 10.4 8 Este 22 Este 0 -- -- 96
2021-01-07 14:00:00 10.2 8 Este 23 Este 0 -- -- 96
2021-01-07 13:00:00 10.3 8 Este 27 Este 0.2 -- -- 96
2021-01-07 12:00:00 9.8 10 Este 24 Este 0.8 -- -- 96
2021-01-07 11:00:00 9.7 9 Este 23 Sudeste 0.4 -- -- 95
2021-01-07 10:00:00 9.5 9 Este 26 Este 0.2 -- -- 95
2021-01-07 09:00:00 9.5 8 Este 26 Este 0.2 -- -- 94
2021-01-07 08:00:00 9.4 10 Este 25 Este 0.4 -- -- 94
2021-01-07 07:00:00 9.2 9 Este 26 Este 0.2 -- -- 94
2021-01-07 06:00:00 9.2 9 Este 28 Este 0 -- -- 92
2021-01-07 05:00:00 9.4 10 Este 30 Este 0 -- -- 90
2021-01-07 04:00:00 9.4 14 Sudeste 33 Sudeste 0 -- -- 88
2021-01-07 03:00:00 9.2 12 Sudeste 28 Sudeste 0.2 -- -- 86
2021-01-07 02:00:00 8.7 12 Sudeste 32 Sudeste 0.2 -- -- 91
2021-01-07 01:00:00 8.6 14 Este 40 Este 1.8 -- -- 95
2021-01-07 00:00:00 9 15 Este 44 Sudeste 2.8 -- -- 96
2021-01-06 23:00:00 9.2 17 Este 55 Sudeste 1.4 -- -- 96
2021-01-06 22:00:00 10.3 31 Sudeste 51 Sudeste 5.4 -- -- 96
2021-01-06 21:00:00 9.2 12 Este 33 Este 10.6 -- -- 96
2021-01-06 20:00:00 9.3 9 Este 30 Sudeste 5 -- -- 95
2021-01-06 19:00:00 8.9 8 Este 30 Este 4.8 -- -- 95
2021-01-06 18:00:00 9.1 11 Este 29 Este 2.8 -- -- 95
2021-01-06 17:00:00 9 9 Este 32 Este 1.4 -- -- 94
2021-01-06 16:00:00 9.3 9 Sudeste 30 Este 0.8 -- -- 93
2021-01-06 15:00:00 9.7 11 Este 29 Este 0 -- -- 90
2021-01-06 14:00:00 10.5 8 Este 36 Sudeste 0 -- -- 86
2021-01-06 13:00:00 10.7 19 Sudeste 33 Este 0 -- -- 88
2021-01-06 12:00:00 10.3 11 Sudeste 25 Este 0 -- -- 87
2021-01-06 11:00:00 10.2 7 Este 23 Sudeste 0 -- -- 85
2021-01-06 10:00:00 9.5 4 Este 12 Este 0.2 -- -- 85
2021-01-06 09:00:00 8.8 3 Este 15 Este 0 -- -- 88
2021-01-06 08:00:00 8.6 5 Este 17 Este 0 -- -- 90
2021-01-06 07:00:00 8.6 3 Este 11 Este 0 -- -- 92
2021-01-06 06:00:00 8.5 0 Calma 8 Nordeste 0 -- -- 93
2021-01-06 05:00:00 8.6 7 Sudeste 13 Sudeste 0 -- -- 94
2021-01-06 04:00:00 8.6 3 Norte 9 Norte 0 -- -- 95
2021-01-06 03:00:00 8.7 4 Nordeste 9 Nordeste 0.8 -- -- 95
2021-01-06 02:00:00 8.8 2 Nordeste 9 Nordeste 1.8 -- -- 94
2021-01-06 01:00:00 8.9 4 Nordeste 9 Norte 1.4 -- -- 94
2021-01-06 00:00:00 8.9 5 Nordeste 11 Norte 0.2 -- -- 93
2021-01-05 23:00:00 9.1 3 Sudeste 8 Nordeste 0.2 -- -- 92
2021-01-05 22:00:00 9.3 5 Nordeste 16 Sur 1.4 -- -- 91
2021-01-05 21:00:00 9.8 12 Sudeste 22 Sudeste 0.6 -- -- 88
2021-01-05 20:00:00 10.6 3 Noroeste 12 Nordeste 0 -- -- 81
2021-01-05 19:00:00 10.8 0 Calma 10 Sudeste 0 -- -- 75
2021-01-05 18:00:00 11.2 4 Este 11 Este 0 -- -- 72
2021-01-05 17:00:00 11.6 3 Sudeste 9 Sudeste 0 -- -- 65
2021-01-05 16:00:00 12.1 4 Sudeste 13 Sur 0 -- -- 64
2021-01-05 15:00:00 12.9 5 Sudeste 13 Sudeste 0 -- -- 61
2021-01-05 14:00:00 12.9 6 Sur 13 Sur 0 -- -- 60
2021-01-05 13:00:00 12.1 4 Sudeste 11 Sur 0 -- -- 59
2021-01-05 12:00:00 11.8 4 Este 8 Este 0 -- -- 60
2021-01-05 11:00:00 10.5 3 Norte 5 Norte 0 -- -- 66
2021-01-05 10:00:00 9.3 0 Calma 4 Nordeste 0 -- -- 72
2021-01-05 09:00:00 8.4 2 Nordeste 9 Noroeste 0 -- -- 69
2021-01-05 08:00:00 8.1 3 Norte 7 Noroeste 0 -- -- 72
2021-01-05 07:00:00 8.4 3 Noroeste 13 Noroeste 0 -- -- 71
2021-01-05 06:00:00 8.9 9 Norte 14 Norte 0 -- -- 68
2021-01-05 05:00:00 9.2 8 Norte 16 Noroeste 0 -- -- 68
2021-01-05 04:00:00 8.4 13 Noroeste 18 Noroeste 0 -- -- 67
2021-01-05 03:00:00 7.9 16 Noroeste 22 Noroeste 0 -- -- 67
2021-01-05 02:00:00 7.7 15 Noroeste 20 Noroeste 0 -- -- 68
2021-01-05 01:00:00 7.4 15 Noroeste 21 Noroeste 0 -- -- 68
2021-01-05 00:00:00 7.5 13 Noroeste 20 Noroeste 0 -- -- 68
2021-01-04 23:00:00 7.3 13 Noroeste 19 Norte 0 -- -- 69
2021-01-04 22:00:00 7 10 Norte 18 Noroeste 0 -- -- 71
2021-01-04 21:00:00 7.1 12 Noroeste 16 Noroeste 0 -- -- 69
2021-01-04 20:00:00 8.1 9 Noroeste 12 Norte 0 -- -- 66
2021-01-04 19:00:00 9.1 7 Noroeste 21 Norte 0 -- -- 62
2021-01-04 18:00:00 11.4 10 Norte 22 Noroeste 0 -- -- 55
2021-01-04 17:00:00 13.7 13 Noroeste 31 Norte 0 -- -- 47
2021-01-04 16:00:00 14.5 15 Noroeste 34 Norte 0 -- -- 44
2021-01-04 15:00:00 13.9 18 Norte 39 Norte 0 -- -- 45
2021-01-04 14:00:00 13.1 23 Norte 38 Norte 0 -- -- 47
2021-01-04 13:00:00 12.5 15 Noroeste 30 Noroeste 0 -- -- 52
2021-01-04 12:00:00 10.8 10 Noroeste 21 Norte 0 -- -- 62
2021-01-04 11:00:00 8.9 9 Noroeste 15 Noroeste 0 -- -- 68
2021-01-04 10:00:00 6.5 9 Noroeste 19 Noroeste 0 -- -- 73
2021-01-04 09:00:00 4.8 14 Noroeste 20 Noroeste 0 -- -- 77
2021-01-04 08:00:00 4.6 13 Noroeste 21 Noroeste 0 -- -- 77
2021-01-04 07:00:00 4.8 15 Noroeste 24 Noroeste 0 -- -- 73
2021-01-04 06:00:00 5.2 15 Noroeste 27 Norte 0 -- -- 67
2021-01-04 05:00:00 6.4 16 Noroeste 36 Norte 0 -- -- 61
2021-01-04 04:00:00 7.2 23 Norte 33 Norte 0 -- -- 65
2021-01-04 03:00:00 5.6 18 Norte 26 Norte 0 -- -- 67
2021-01-04 02:00:00 6.4 17 Norte 25 Noroeste 0 -- -- 66
2021-01-04 01:00:00 7.4 16 Norte 31 Norte 0 -- -- 64
2021-01-04 00:00:00 7.3 18 Norte 28 Noroeste 0 -- -- 65
2021-01-03 23:00:00 7 14 Norte 34 Noroeste 0 -- -- 58
2021-01-03 22:00:00 7.2 21 Noroeste 30 Norte 0 -- -- 57
2021-01-03 21:00:00 7.4 16 Norte 29 Noroeste 0 -- -- 55
2021-01-03 20:00:00 7.4 15 Noroeste 28 Norte 0 -- -- 55
2021-01-03 19:00:00 8.1 10 Noroeste 22 Noroeste 0 -- -- 53
2021-01-03 18:00:00 10.6 14 Noroeste 26 Noroeste 0 -- -- 43
2021-01-03 17:00:00 13.3 16 Noroeste 30 Oeste 0 -- -- 37
2021-01-03 16:00:00 13.7 19 Noroeste 33 Noroeste 0 -- -- 33
2021-01-03 15:00:00 14.1 18 Norte 37 Norte 0 -- -- 34
2021-01-03 14:00:00 13.2 19 Norte 37 Oeste 0 -- -- 33
2021-01-03 13:00:00 11.2 14 Noroeste 27 Noroeste 0 -- -- 44
2021-01-03 12:00:00 9.5 13 Noroeste 23 Noroeste 0 -- -- 47
2021-01-03 11:00:00 8 15 Noroeste 26 Norte 0 -- -- 49
2021-01-03 10:00:00 6.5 14 Norte 28 Noroeste 0 -- -- 55
2021-01-03 09:00:00 4.9 18 Noroeste 27 Noroeste 0 -- -- 59
2021-01-03 08:00:00 4.6 21 Noroeste 28 Noroeste 0 -- -- 61
2021-01-03 07:00:00 5 17 Noroeste 30 Noroeste 0 -- -- 60
2021-01-03 06:00:00 6.9 23 Norte 32 Norte 0 -- -- 50
2021-01-03 05:00:00 5.7 19 Norte 27 Norte 0 -- -- 57
2021-01-03 04:00:00 4.5 17 Noroeste 23 Norte 0 -- -- 67
2021-01-03 03:00:00 5.8 10 Noroeste 24 Noroeste 0 -- -- 62
2021-01-03 02:00:00 5.3 11 Norte 20 Norte 0 -- -- 67
2021-01-03 01:00:00 5.4 13 Noroeste 19 Norte 0 -- -- 73
2021-01-03 00:00:00 6.6 13 Noroeste 21 Noroeste 0 -- -- 70
2021-01-02 23:00:00 7.7 11 Noroeste 30 Noroeste 0 -- -- 65
2021-01-02 22:00:00 7.8 15 Norte 24 Noroeste 0 -- -- 65
2021-01-02 21:00:00 6.9 6 Noroeste 17 Norte 0 -- -- 63
2021-01-02 20:00:00 8.1 9 Noroeste 28 Norte 0 -- -- 57
2021-01-02 19:00:00 8.9 14 Norte 28 Norte 0 -- -- 55
2021-01-02 18:00:00 10.3 20 Norte 39 Norte 0 -- -- 47
2021-01-02 17:00:00 12.6 21 Noroeste 38 Noroeste 0 -- -- 38
2021-01-02 16:00:00 13.1 26 Noroeste 40 Noroeste 0 -- -- 39
2021-01-02 15:00:00 13.6 22 Norte 43 Noroeste 0 -- -- 36
2021-01-02 14:00:00 12.9 19 Noroeste 36 Oeste 0 -- -- 41